Time;durP1;ratioP1;P1;durP2;ratioP2;P2;SDS_P1;SDS_P2;PMS_P1;PMS_P2;Temp;Humidity;BMP_temperature;BMP_pressure;BME280_temperature;BME280_humidity;BME280_pressure;Samples;Min_cycle;Max_cycle;Signal;HPM_P1;HPM_P2
2024/03/30 00:00:04;;;;;;;12.50;6.70;;;;;;;13.66;57.43;99233.36;110726;1258;22047;-68
2024/03/30 00:02:59;;;;;;;11.80;6.40;;;;;;;13.62;57.54;99225.89;110966;1258;23724;-70
2024/03/30 00:05:28;;;;;;;13.10;6.70;;;;;;;13.59;57.55;99224.80;110974;1258;21963;-70
2024/03/30 00:07:56;;;;;;;14.00;7.50;;;;;;;13.55;57.92;99230.42;110969;1258;21968;-70
2024/03/30 00:10:25;;;;;;;14.70;7.00;;;;;;;13.51;58.22;99232.80;110954;1258;22002;-71
2024/03/30 00:12:56;;;;;;;11.70;6.50;;;;;;;13.49;57.98;99229.30;110928;1258;21955;-70
2024/03/30 00:15:28;;;;;;;14.90;6.70;;;;;;;13.47;58.23;99229.48;110924;1258;21979;-69
2024/03/30 00:18:00;;;;;;;13.80;6.70;;;;;;;13.43;58.42;99228.30;111000;1249;23052;-69
2024/03/30 00:20:30;;;;;;;12.20;6.70;;;;;;;13.41;58.41;99229.34;110986;1258;22735;-70
2024/03/30 00:22:59;;;;;;;13.30;6.70;;;;;;;13.40;58.57;99227.34;110979;1258;22371;-70
2024/03/30 00:25:28;;;;;;;15.40;6.80;;;;;;;13.38;58.64;99224.88;110984;1258;23585;-70
2024/03/30 00:27:56;;;;;;;13.90;6.80;;;;;;;13.37;58.63;99224.83;110995;1258;21962;-70
2024/03/30 00:30:26;;;;;;;19.60;8.30;;;;;;;13.34;58.63;99226.67;110928;1258;23519;-70
2024/03/30 00:32:54;;;;;;;15.00;7.00;;;;;;;13.31;58.70;99223.52;110959;1257;21966;-69
2024/03/30 00:35:23;;;;;;;16.70;7.00;;;;;;;13.25;59.25;99220.31;111004;1258;22325;-69
2024/03/30 00:37:53;;;;;;;17.30;6.70;;;;;;;13.21;59.46;99216.65;111107;1258;21957;-71
2024/03/30 00:40:22;;;;;;;15.60;6.90;;;;;;;13.18;59.11;99217.98;111999;1258;23457;-70
2024/03/30 00:42:51;;;;;;;15.10;7.00;;;;;;;13.19;59.13;99217.89;111126;1258;21983;-70
2024/03/30 00:45:37;;;;;;;19.80;7.90;;;;;;;13.20;58.98;99218.69;110907;1258;23042;-71
2024/03/30 00:48:07;;;;;;;14.50;8.20;;;;;;;13.18;59.30;99212.34;111042;1258;23741;-71
2024/03/30 00:50:35;;;;;;;13.40;8.10;;;;;;;13.15;59.33;99216.14;110982;1258;21927;-71
2024/03/30 00:53:04;;;;;;;48.00;34.10;;;;;;;13.12;59.26;99214.39;110998;1258;21984;-71
2024/03/30 00:55:33;;;;;;;34.10;22.10;;;;;;;13.07;59.46;99213.41;110995;1258;23017;-70
2024/03/30 00:58:01;;;;;;;24.80;13.20;;;;;;;13.03;59.90;99214.58;111005;1258;21997;-70
2024/03/30 01:00:30;;;;;;;18.60;10.90;;;;;;;12.95;60.13;99217.58;110980;1258;23572;-70
2024/03/30 01:02:59;;;;;;;16.60;9.60;;;;;;;12.90;60.33;99211.90;110972;1258;21968;-71
2024/03/30 01:05:27;;;;;;;18.20;8.50;;;;;;;12.88;60.10;99212.68;110746;1258;21963;-71
2024/03/30 01:07:56;;;;;;;16.30;7.90;;;;;;;12.85;60.30;99213.30;110968;1258;22759;-70
2024/03/30 01:10:24;;;;;;;16.60;8.30;;;;;;;12.82;61.23;99213.09;110708;1258;22017;-71
2024/03/30 01:12:54;;;;;;;21.20;9.00;;;;;;;12.78;61.13;99213.10;110775;1258;21958;-69
2024/03/30 01:15:23;;;;;;;16.50;8.60;;;;;;;12.75;61.00;99215.52;110709;1258;23689;-70
2024/03/30 01:17:52;;;;;;;15.10;8.20;;;;;;;12.71;61.22;99211.70;111012;1258;21976;-70
2024/03/30 01:20:21;;;;;;;14.70;8.70;;;;;;;12.68;61.25;99214.25;110978;1258;21961;-70
2024/03/30 01:22:50;;;;;;;16.10;8.90;;;;;;;12.64;61.77;99208.17;111013;1258;21978;-70
2024/03/30 01:25:19;;;;;;;15.40;8.30;;;;;;;12.58;61.93;99209.77;110947;1258;23579;-72
2024/03/30 01:27:49;;;;;;;14.10;8.20;;;;;;;12.54;61.69;99210.91;110971;1247;23020;-71
2024/03/30 01:30:19;;;;;;;19.20;8.50;;;;;;;12.49;62.09;99208.84;110683;1258;23630;-70
2024/03/30 01:32:48;;;;;;;17.00;9.50;;;;;;;12.45;62.37;99213.99;111020;1258;21966;-70
2024/03/30 01:35:17;;;;;;;20.40;9.80;;;;;;;12.42;62.56;99214.52;110954;1258;21972;-75
2024/03/30 01:37:46;;;;;;;17.30;8.50;;;;;;;12.39;62.49;99211.60;110645;1258;23585;-72
2024/03/30 01:40:15;;;;;;;16.00;7.60;;;;;;;12.37;62.46;99209.84;110981;1258;23656;-72
2024/03/30 01:42:43;;;;;;;19.80;8.30;;;;;;;12.38;62.47;99211.29;110938;1258;22054;-72
2024/03/30 01:45:12;;;;;;;20.40;8.60;;;;;;;12.35;62.69;99214.61;111032;1258;21970;-71
2024/03/30 01:47:40;;;;;;;22.50;8.90;;;;;;;12.34;62.61;99214.91;110986;1258;23026;-70
2024/03/30 01:50:09;;;;;;;16.90;8.90;;;;;;;12.34;62.55;99210.67;111051;1258;21970;-70
2024/03/30 01:52:39;;;;;;;19.50;8.10;;;;;;;12.35;62.71;99212.96;110713;1258;23060;-73
2024/03/30 01:55:08;;;;;;;14.50;8.10;;;;;;;12.36;62.64;99211.35;110989;1258;22001;-70
2024/03/30 01:57:37;;;;;;;13.70;7.20;;;;;;;12.34;62.65;99206.07;110993;1258;23020;-70
2024/03/30 02:00:07;;;;;;;16.50;7.80;;;;;;;12.33;62.64;99206.02;110696;1258;22007;-70
2024/03/30 02:02:36;;;;;;;16.60;7.70;;;;;;;12.30;62.90;99202.74;111043;1258;21996;-71
2024/03/30 02:05:05;;;;;;;18.10;7.90;;;;;;;12.26;63.14;99200.64;110685;1258;22746;-72
2024/03/30 02:07:34;;;;;;;16.00;8.00;;;;;;;12.22;63.39;99202.58;110686;1258;22132;-72
2024/03/30 02:10:04;;;;;;;14.90;7.60;;;;;;;12.14;63.45;99200.19;110766;1258;21948;-73
2024/03/30 02:12:32;;;;;;;12.60;7.20;;;;;;;12.10;63.40;99205.52;110957;1258;21957;-72
2024/03/30 02:15:01;;;;;;;16.70;6.60;;;;;;;12.05;63.49;99206.02;110994;1258;23015;-71
2024/03/30 02:17:30;;;;;;;14.60;6.80;;;;;;;12.03;63.31;99206.19;110959;1258;21969;-70
2024/03/30 02:19:59;;;;;;;13.60;7.40;;;;;;;12.00;63.62;99206.45;110981;1258;23083;-70
2024/03/30 02:22:29;;;;;;;17.10;6.60;;;;;;;11.96;63.81;99211.73;111003;1258;21964;-70
2024/03/30 02:24:57;;;;;;;15.90;6.50;;;;;;;11.92;64.23;99217.06;110963;1258;21962;-70
2024/03/30 02:27:26;;;;;;;15.10;7.20;;;;;;;11.87;64.56;99212.98;110757;1258;22834;-71
2024/03/30 02:29:59;;;;;;;12.00;6.70;;;;;;;11.83;64.16;99212.75;111001;1258;21958;-71
2024/03/30 02:32:28;;;;;;;16.90;7.70;;;;;;;11.81;64.23;99214.02;111019;1258;24157;-70
2024/03/30 02:34:57;;;;;;;16.40;7.30;;;;;;;11.79;64.76;99216.34;110976;1258;24982;-70
2024/03/30 02:37:25;;;;;;;16.70;7.00;;;;;;;11.77;64.82;99217.91;110787;1258;23039;-71
2024/03/30 02:39:54;;;;;;;17.00;8.00;;;;;;;11.76;64.68;99218.38;111018;1258;23573;-71
2024/03/30 02:42:22;;;;;;;13.50;6.90;;;;;;;11.76;65.04;99221.06;110956;1258;21974;-70
2024/03/30 02:44:51;;;;;;;17.30;7.80;;;;;;;11.75;65.04;99222.56;111004;1258;21995;-70
2024/03/30 02:47:20;;;;;;;20.00;8.40;;;;;;;11.74;64.80;99224.60;110686;1257;21989;-70
2024/03/30 02:49:48;;;;;;;17.60;8.50;;;;;;;11.73;65.02;99225.77;111050;1258;22061;-70
2024/03/30 02:52:17;;;;;;;17.20;8.10;;;;;;;11.71;65.11;99223.95;110988;1258;23483;-70
2024/03/30 02:54:48;;;;;;;15.30;6.50;;;;;;;11.68;65.39;99226.20;110991;1255;21958;-71
2024/03/30 02:57:16;;;;;;;14.50;7.20;;;;;;;11.66;65.28;99222.83;110684;1258;22843;-71
2024/03/30 02:59:45;;;;;;;12.70;6.70;;;;;;;11.65;65.29;99228.37;110783;1258;21957;-70
2024/03/30 03:02:14;;;;;;;18.70;7.70;;;;;;;11.64;65.72;99229.34;110756;1258;21965;-70
2024/03/30 03:04:43;;;;;;;14.20;7.60;;;;;;;11.63;65.83;99234.02;110415;1258;22060;-70
2024/03/30 03:07:12;;;;;;;13.30;7.10;;;;;;;11.64;65.59;99231.15;111037;1258;21956;-69
2024/03/30 03:09:41;;;;;;;15.90;7.50;;;;;;;11.64;65.73;99230.65;110991;1258;22739;-70
2024/03/30 03:12:09;;;;;;;15.50;6.80;;;;;;;11.63;65.74;99225.55;110983;1258;22236;-71
2024/03/30 03:14:38;;;;;;;16.30;7.80;;;;;;;11.63;65.88;99228.63;112043;1258;22537;-70
2024/03/30 03:17:06;;;;;;;17.80;7.50;;;;;;;11.62;66.05;99228.83;111649;1256;21958;-70
2024/03/30 03:19:35;;;;;;;15.70;7.80;;;;;;;11.64;66.03;99223.78;110745;1258;21970;-70
2024/03/30 03:22:03;;;;;;;19.60;7.70;;;;;;;11.65;66.00;99222.61;110986;1258;21962;-71
2024/03/30 03:24:32;;;;;;;13.20;7.20;;;;;;;11.66;65.79;99224.09;110936;1258;23135;-71
2024/03/30 03:27:01;;;;;;;15.90;7.20;;;;;;;11.66;65.74;99220.71;111001;1258;22151;-70
2024/03/30 03:29:29;;;;;;;14.70;7.70;;;;;;;11.65;65.76;99225.58;110977;1258;23393;-70
2024/03/30 03:31:58;;;;;;;14.90;6.10;;;;;;;11.65;65.86;99224.92;110654;1258;21960;-70
2024/03/30 03:34:26;;;;;;;19.20;6.70;;;;;;;11.64;65.73;99224.41;111058;1258;24308;-70
2024/03/30 03:36:55;;;;;;;18.20;7.30;;;;;;;11.64;65.87;99220.91;110706;1258;23608;-71
2024/03/30 03:39:24;;;;;;;13.40;7.00;;;;;;;11.64;66.03;99222.52;110918;1258;21949;-71
2024/03/30 03:41:53;;;;;;;18.10;7.60;;;;;;;11.62;66.23;99224.29;110976;1255;21971;-70
2024/03/30 03:44:21;;;;;;;16.40;6.60;;;;;;;11.59;66.19;99218.73;110982;1258;23614;-71
2024/03/30 03:46:51;;;;;;;14.20;7.40;;;;;;;11.56;66.26;99217.05;110971;1254;22025;-70
2024/03/30 03:49:20;;;;;;;14.60;7.30;;;;;;;11.56;66.42;99217.08;110720;1258;23033;-70
2024/03/30 03:51:49;;;;;;;17.30;6.70;;;;;;;11.53;66.67;99219.30;110955;1258;23702;-71
2024/03/30 03:54:19;;;;;;;15.70;6.80;;;;;;;11.51;66.72;99215.05;110919;1258;21969;-71
2024/03/30 03:56:48;;;;;;;12.80;6.40;;;;;;;11.48;66.87;99214.25;110705;1258;21969;-70
2024/03/30 03:59:16;;;;;;;17.20;6.30;;;;;;;11.47;67.07;99215.95;111002;1258;21959;-70
2024/03/30 04:01:45;;;;;;;14.30;6.10;;;;;;;11.44;67.24;99214.76;111005;1258;23739;-71
2024/03/30 04:04:16;;;;;;;19.00;6.90;;;;;;;11.44;67.26;99214.25;111033;1258;24309;-70
2024/03/30 04:06:44;;;;;;;13.90;6.00;;;;;;;11.45;67.48;99216.14;110960;1258;22835;-72
2024/03/30 04:09:13;;;;;;;17.80;6.50;;;;;;;11.45;67.13;99222.10;110971;1258;21956;-70
2024/03/30 04:11:42;;;;;;;16.30;5.80;;;;;;;11.48;66.82;99228.36;111001;1258;24190;-70
2024/03/30 04:14:10;;;;;;;13.20;7.20;;;;;;;11.51;67.03;99234.30;110990;1256;23022;-70
2024/03/30 04:16:39;;;;;;;18.90;8.10;;;;;;;11.51;66.78;99239.39;111017;1258;22576;-70
2024/03/30 04:19:08;;;;;;;16.60;7.40;;;;;;;11.51;67.08;99247.51;111006;1258;22435;-69
2024/03/30 04:21:37;;;;;;;19.80;7.70;;;;;;;11.50;67.05;99247.90;110957;1258;21973;-69
2024/03/30 04:24:05;;;;;;;15.20;6.50;;;;;;;11.52;66.99;99247.25;110992;1258;21961;-70
2024/03/30 04:26:34;;;;;;;17.80;6.60;;;;;;;11.53;66.96;99244.64;111019;1252;21965;-70
2024/03/30 04:29:02;;;;;;;14.70;5.90;;;;;;;11.54;66.89;99244.07;110985;1258;23654;-70
2024/03/30 04:31:31;;;;;;;18.40;6.50;;;;;;;11.54;66.88;99243.17;111028;1258;21984;-71
2024/03/30 04:33:59;;;;;;;18.30;7.20;;;;;;;11.56;66.77;99243.86;111004;1258;22752;-71
2024/03/30 04:36:28;;;;;;;14.70;5.90;;;;;;;11.57;66.77;99239.54;111016;1258;23031;-70
2024/03/30 04:38:57;;;;;;;14.10;5.90;;;;;;;11.55;66.97;99236.73;111001;1258;21964;-71
2024/03/30 04:41:25;;;;;;;11.80;6.30;;;;;;;11.54;67.00;99240.88;111027;1258;21965;-71
2024/03/30 04:43:54;;;;;;;15.50;5.40;;;;;;;11.50;67.42;99237.21;111003;1258;21966;-72
2024/03/30 04:46:23;;;;;;;12.80;6.00;;;;;;;11.47;67.40;99234.80;110981;1258;22433;-72
2024/03/30 04:48:51;;;;;;;17.80;6.10;;;;;;;11.47;67.09;99236.58;110699;1258;21969;-70
2024/03/30 04:51:20;;;;;;;16.40;6.10;;;;;;;11.47;66.98;99240.91;111017;1251;21966;-73
2024/03/30 04:53:48;;;;;;;19.40;6.60;;;;;;;11.49;67.15;99243.42;110932;1258;21965;-73
2024/03/30 04:56:18;;;;;;;16.20;6.80;;;;;;;11.53;66.75;99239.74;110970;1250;22000;-71
2024/03/30 04:58:47;;;;;;;13.30;5.90;;;;;;;11.58;66.99;99239.46;110969;1258;21965;-72
2024/03/30 05:01:16;;;;;;;18.00;6.70;;;;;;;11.63;66.65;99243.39;111014;1258;21952;-72
2024/03/30 05:03:45;;;;;;;15.10;6.10;;;;;;;11.68;66.56;99248.97;110990;1258;22753;-71
2024/03/30 05:06:13;;;;;;;18.80;6.80;;;;;;;11.68;66.60;99247.85;110952;1258;21998;-71
2024/03/30 05:08:42;;;;;;;16.90;6.30;;;;;;;11.68;66.56;99251.25;111193;1258;21978;-72
2024/03/30 05:11:11;;;;;;;15.20;5.90;;;;;;;11.70;66.12;99249.97;110951;1258;21960;-72
2024/03/30 05:13:42;;;;;;;16.20;6.10;;;;;;;11.71;66.48;99257.48;110607;1258;21975;-74
2024/03/30 05:16:11;;;;;;;10.60;5.10;;;;;;;11.68;66.42;99255.59;111011;1258;23735;-71
2024/03/30 05:18:39;;;;;;;16.50;5.70;;;;;;;11.68;66.63;99253.52;110994;1258;22079;-73
2024/03/30 05:21:08;;;;;;;17.10;5.70;;;;;;;11.66;66.82;99252.29;110901;1258;22978;-73
2024/03/30 05:23:37;;;;;;;14.80;5.60;;;;;;;11.65;67.04;99259.80;110952;1258;23016;-73
2024/03/30 05:26:06;;;;;;;17.50;5.70;;;;;;;11.65;66.76;99263.64;110962;1258;22159;-73
2024/03/30 05:28:37;;;;;;;17.80;6.40;;;;;;;11.65;67.01;99262.80;110678;1258;23108;-72
2024/03/30 05:31:19;;;;;;;16.70;6.50;;;;;;;11.65;67.14;99259.80;110996;1258;23000;-73
2024/03/30 05:33:48;;;;;;;14.80;6.40;;;;;;;11.65;66.84;99256.09;111041;1258;22229;-73
2024/03/30 05:36:17;;;;;;;13.00;5.80;;;;;;;11.67;67.07;99251.67;110985;1258;22001;-73
2024/03/30 05:38:46;;;;;;;16.00;7.20;;;;;;;11.66;67.12;99252.27;111014;1258;21968;-73
2024/03/30 05:41:14;;;;;;;17.10;7.10;;;;;;;11.68;67.00;99255.33;110695;1258;23679;-72
2024/03/30 05:43:43;;;;;;;18.70;6.80;;;;;;;11.69;67.09;99254.13;111056;1258;23020;-72
2024/03/30 05:46:22;;;;;;;17.90;7.10;;;;;;;11.73;67.00;99253.36;110812;1258;22728;-69
2024/03/30 05:48:50;;;;;;;18.20;7.40;;;;;;;11.76;66.77;99251.85;111020;1258;21958;-70
2024/03/30 05:51:19;;;;;;;21.60;7.50;;;;;;;11.81;66.48;99245.93;111022;1258;21976;-70
2024/03/30 05:53:47;;;;;;;22.10;7.90;;;;;;;11.87;66.47;99251.08;110899;1258;22006;-70
2024/03/30 05:56:16;;;;;;;18.40;7.00;;;;;;;11.92;66.60;99249.94;111097;1258;22058;-71
2024/03/30 05:58:46;;;;;;;18.80;7.50;;;;;;;11.96;66.26;99252.65;111353;1258;22010;-68
2024/03/30 06:01:14;;;;;;;25.00;7.50;;;;;;;12.03;65.96;99252.43;110733;1258;23579;-70
2024/03/30 06:03:43;;;;;;;17.10;6.50;;;;;;;12.10;65.81;99248.98;111004;1258;22501;-71
2024/03/30 06:06:12;;;;;;;19.40;6.80;;;;;;;12.13;65.62;99247.95;110994;1258;22003;-70
2024/03/30 06:08:40;;;;;;;21.20;7.80;;;;;;;12.19;65.52;99244.55;111040;1258;23669;-70
2024/03/30 06:11:09;;;;;;;17.40;7.10;;;;;;;12.24;65.50;99245.12;110740;1258;23057;-70
2024/03/30 06:13:37;;;;;;;22.60;7.30;;;;;;;12.28;65.61;99241.41;110962;1258;21961;-70
2024/03/30 06:16:06;;;;;;;17.70;7.40;;;;;;;12.33;65.46;99243.23;110992;1258;22005;-67
2024/03/30 06:18:35;;;;;;;22.70;7.70;;;;;;;12.40;65.34;99241.13;110946;1258;23481;-70
2024/03/30 06:21:04;;;;;;;19.80;8.10;;;;;;;12.49;65.09;99241.04;110990;1250;23016;-71
2024/03/30 06:23:32;;;;;;;22.30;8.20;;;;;;;12.53;64.86;99241.52;110983;1258;23017;-70
2024/03/30 06:26:01;;;;;;;15.70;6.80;;;;;;;12.59;64.79;99240.77;110931;1258;22176;-71
2024/03/30 06:28:30;;;;;;;19.30;7.30;;;;;;;12.64;64.58;99239.43;110975;1258;21995;-73
2024/03/30 06:31:02;;;;;;;14.30;6.90;;;;;;;12.69;64.46;99244.17;110979;1258;23056;-72
2024/03/30 06:33:31;;;;;;;18.80;7.60;;;;;;;12.77;64.18;99241.14;111011;1258;22827;-69
2024/03/30 06:35:59;;;;;;;16.10;7.20;;;;;;;12.85;63.84;99242.68;111026;1258;22447;-71
2024/03/30 06:38:28;;;;;;;20.60;6.40;;;;;;;12.90;63.76;99248.98;110972;1258;22721;-71
2024/03/30 06:43:44;;;;;;;20.30;6.10;;;;;;;13.03;63.58;99256.10;111020;1258;21961;-70
2024/03/30 06:46:17;;;;;;;17.60;7.10;;;;;;;13.13;63.35;99254.80;111071;1258;21980;-70
2024/03/30 06:48:46;;;;;;;21.10;7.60;;;;;;;13.24;63.17;99257.06;111015;1258;23576;-69
2024/03/30 06:51:14;;;;;;;29.10;8.70;;;;;;;13.28;62.78;99254.37;110983;1258;21954;-70
2024/03/30 06:53:43;;;;;;;21.40;9.50;;;;;;;13.36;62.57;99256.30;111031;1258;21966;-70
2024/03/30 06:56:11;;;;;;;28.90;11.00;;;;;;;13.49;62.58;99257.79;111007;1250;23689;-70
2024/03/30 06:58:40;;;;;;;21.60;8.30;;;;;;;13.59;62.46;99258.01;110983;1258;21988;-70
2024/03/30 07:01:09;;;;;;;25.00;9.50;;;;;;;13.74;62.02;99262.98;110972;1258;21961;-69
2024/03/30 07:03:37;;;;;;;20.50;7.10;;;;;;;13.90;61.76;99265.86;110616;1258;23681;-69
2024/03/30 07:06:06;;;;;;;21.80;7.00;;;;;;;14.06;61.39;99264.52;110989;1258;22373;-70
2024/03/30 07:08:37;;;;;;;18.60;7.40;;;;;;;14.19;60.76;99266.40;110979;1258;21971;-69
2024/03/30 07:11:05;;;;;;;21.00;8.50;;;;;;;14.26;60.40;99271.17;110682;1258;21958;-70
2024/03/30 07:13:34;;;;;;;18.00;6.90;;;;;;;14.35;60.29;99271.33;111022;1258;23392;-69
2024/03/30 07:16:03;;;;;;;19.00;7.50;;;;;;;14.48;59.94;99270.36;110970;1258;21970;-70
2024/03/30 07:18:32;;;;;;;20.40;6.70;;;;;;;14.81;59.32;99272.09;110954;1258;22169;-70
2024/03/30 07:21:00;;;;;;;19.80;6.80;;;;;;;15.41;57.75;99268.89;111010;1258;21962;-70
2024/03/30 07:23:29;;;;;;;17.60;5.70;;;;;;;16.08;55.87;99265.71;110992;1258;21968;-70
2024/03/30 07:26:06;;;;;;;28.70;7.40;;;;;;;16.64;54.64;99267.23;111034;1258;21967;-70
2024/03/30 07:28:34;;;;;;;14.50;5.10;;;;;;;17.02;53.84;99268.30;111041;1254;21967;-70
2024/03/30 07:31:05;;;;;;;20.70;6.80;;;;;;;17.39;52.57;99268.79;111026;1258;22955;-68
2024/03/30 07:33:34;;;;;;;17.20;5.60;;;;;;;17.74;52.21;99269.95;110994;1258;22339;-68
2024/03/30 07:36:03;;;;;;;15.00;5.80;;;;;;;18.11;50.83;99266.98;110975;1258;22055;-71
2024/03/30 07:38:33;;;;;;;23.70;5.50;;;;;;;18.55;49.59;99267.08;111016;1258;22021;-70
2024/03/30 07:41:02;;;;;;;21.90;6.50;;;;;;;19.03;48.14;99273.36;110979;1258;22458;-70
2024/03/30 07:43:30;;;;;;;29.50;6.90;;;;;;;19.62;48.37;99274.79;110934;1258;21971;-69
2024/03/30 07:46:03;;;;;;;18.80;6.30;;;;;;;20.28;46.38;99270.92;110937;1252;21957;-69
2024/03/30 07:48:32;;;;;;;20.40;5.40;;;;;;;20.73;44.88;99269.96;110993;1258;21970;-69
2024/03/30 07:51:01;;;;;;;18.70;5.60;;;;;;;21.05;43.76;99269.14;111003;1258;23459;-70
2024/03/30 07:53:32;;;;;;;18.20;6.90;;;;;;;21.35;42.70;99269.48;110998;1258;22592;-70
2024/03/30 07:56:01;;;;;;;22.80;7.00;;;;;;;21.58;41.62;99269.13;110682;1256;23032;-69
2024/03/30 07:58:30;;;;;;;23.10;8.60;;;;;;;21.71;41.14;99261.94;110981;1258;23608;-69
2024/03/30 08:00:58;;;;;;;22.30;10.50;;;;;;;21.95;40.53;99259.13;110987;1258;22929;-69
2024/03/30 08:03:27;;;;;;;19.80;5.90;;;;;;;22.15;40.00;99256.08;110673;1258;21996;-71
2024/03/30 08:05:59;;;;;;;15.50;6.30;;;;;;;22.43;40.17;99255.37;110991;1254;23034;-69
2024/03/30 08:08:28;;;;;;;13.80;5.70;;;;;;;22.68;38.61;99261.50;111011;1258;23011;-70
2024/03/30 08:10:59;;;;;;;12.90;4.90;;;;;;;22.96;38.37;99263.73;110979;1258;189817;-69
2024/03/30 08:13:27;;;;;;;14.60;4.50;;;;;;;23.19;36.98;99263.73;110976;1258;23017;-69
2024/03/30 08:15:56;;;;;;;13.20;4.60;;;;;;;23.27;37.04;99268.96;110987;1254;22914;-70
2024/03/30 08:18:24;;;;;;;18.60;7.00;;;;;;;23.46;36.74;99266.20;111010;1258;22130;-71
2024/03/30 08:20:53;;;;;;;15.00;5.40;;;;;;;23.73;35.85;99266.02;110996;1258;23057;-72
2024/03/30 08:23:22;;;;;;;17.50;5.50;;;;;;;24.12;36.06;99264.54;110973;1258;22429;-69
2024/03/30 08:25:50;;;;;;;22.20;5.80;;;;;;;24.67;35.30;99264.27;111031;1258;21996;-68
2024/03/30 08:28:19;;;;;;;20.20;5.60;;;;;;;25.11;33.56;99265.24;111040;1258;21969;-70
2024/03/30 08:30:49;;;;;;;17.80;6.50;;;;;;;25.10;32.64;99261.42;110966;1258;21962;-69
2024/03/30 08:33:18;;;;;;;16.80;5.40;;;;;;;24.82;33.30;99260.49;111013;1258;22011;-68
2024/03/30 08:35:54;;;;;;;20.80;6.10;;;;;;;24.75;33.44;99260.03;110997;1251;22437;-70
2024/03/30 08:38:22;;;;;;;19.00;5.80;;;;;;;24.83;33.38;99257.64;111015;1258;21960;-69
2024/03/30 08:40:51;;;;;;;21.50;5.10;;;;;;;24.94;32.84;99255.44;111127;1258;22056;-69
2024/03/30 08:43:25;;;;;;;23.10;5.80;;;;;;;24.80;32.23;99256.41;111025;1258;23711;-69
2024/03/30 08:45:54;;;;;;;16.60;5.50;;;;;;;24.61;33.04;99247.16;110501;1264;23688;-69
2024/03/30 08:48:23;;;;;;;21.40;6.10;;;;;;;24.72;32.94;99244.36;110485;1264;22770;-69
2024/03/30 08:50:52;;;;;;;25.70;6.50;;;;;;;24.63;32.69;99244.73;110489;1264;22135;-70
2024/03/30 08:53:20;;;;;;;24.70;5.80;;;;;;;24.46;32.93;99240.59;110501;1264;23628;-69
2024/03/30 08:55:57;;;;;;;19.40;6.20;;;;;;;24.28;33.03;99239.84;110472;1264;21970;-70
2024/03/30 08:58:27;;;;;;;21.00;5.70;;;;;;;24.23;33.44;99235.55;110342;1264;22021;-69
2024/03/30 09:00:55;;;;;;;24.80;6.50;;;;;;;24.34;32.83;99239.80;110237;1264;21972;-71
2024/03/30 09:03:24;;;;;;;20.30;5.90;;;;;;;24.51;32.96;99234.39;110595;1258;21966;-71
2024/03/30 09:05:52;;;;;;;20.60;5.20;;;;;;;24.66;32.26;99228.69;110979;1258;23680;-68
2024/03/30 09:08:21;;;;;;;20.40;5.40;;;;;;;24.65;32.18;99225.85;110967;1254;23596;-70
2024/03/30 09:10:50;;;;;;;20.50;5.70;;;;;;;24.71;32.41;99227.35;110978;1258;23693;-69
2024/03/30 09:13:19;;;;;;;26.60;6.40;;;;;;;24.99;32.06;99226.58;110964;1254;23691;-68
2024/03/30 09:15:48;;;;;;;25.20;6.30;;;;;;;25.21;32.06;99230.06;111007;1258;23709;-78
2024/03/30 09:18:16;;;;;;;18.90;5.50;;;;;;;25.18;31.52;99231.45;110603;1258;23573;-68
2024/03/30 09:20:46;;;;;;;19.40;5.90;;;;;;;25.10;31.33;99232.99;111023;1258;22730;-68
2024/03/30 09:23:15;;;;;;;26.70;6.10;;;;;;;25.21;31.04;99239.42;110999;1258;21921;-68
2024/03/30 09:25:44;;;;;;;21.70;5.90;;;;;;;25.18;30.95;99236.69;110981;1258;21963;-68
2024/03/30 09:28:12;;;;;;;27.50;6.60;;;;;;;25.09;31.38;99235.52;110987;1258;21956;-69
2024/03/30 09:30:41;;;;;;;26.20;5.60;;;;;;;25.24;31.22;99241.22;111012;1252;22333;-68
2024/03/30 09:33:09;;;;;;;23.60;6.00;;;;;;;25.49;30.69;99241.55;111277;1258;21955;-69
2024/03/30 09:35:40;;;;;;;19.90;6.40;;;;;;;25.63;29.74;99237.25;111726;1258;22044;-68
2024/03/30 09:38:09;;;;;;;31.50;7.80;;;;;;;25.72;29.71;99237.54;111994;1258;22001;-69
2024/03/30 09:40:44;;;;;;;30.00;7.60;;;;;;;25.77;29.37;99239.61;111961;1258;21925;-69
2024/03/30 09:43:14;;;;;;;30.30;7.30;;;;;;;25.69;29.20;99233.63;112015;1258;21971;-70
2024/03/30 09:45:44;;;;;;;37.80;7.20;;;;;;;25.70;29.17;99231.63;111634;1258;22004;-68
2024/03/30 09:48:14;;;;;;;31.70;7.90;;;;;;;25.71;29.00;99231.72;110783;1258;23553;-68
2024/03/30 09:50:43;;;;;;;32.90;7.90;;;;;;;25.81;28.95;99228.08;111097;1258;21967;-70
2024/03/30 09:53:16;;;;;;;32.80;7.60;;;;;;;25.94;28.72;99226.28;110751;1258;22390;-68
2024/03/30 09:55:45;;;;;;;31.90;7.50;;;;;;;26.02;28.86;99220.40;110754;1258;22970;-68
2024/03/30 09:58:15;;;;;;;38.00;8.50;;;;;;;25.91;28.80;99223.77;110751;1258;24350;-68
2024/03/30 10:00:45;;;;;;;31.80;7.30;;;;;;;25.67;28.88;99227.89;111009;1258;23633;-69
2024/03/30 10:03:13;;;;;;;40.30;8.90;;;;;;;25.55;29.23;99229.90;110764;1258;21993;-69
2024/03/30 10:05:46;;;;;;;36.10;9.90;;;;;;;25.57;29.28;99227.83;110726;1258;23585;-68
2024/03/30 10:08:21;;;;;;;42.70;9.60;;;;;;;25.47;29.25;99232.03;110736;1258;21958;-68
2024/03/30 10:10:53;;;;;;;41.90;8.00;;;;;;;25.40;29.11;99234.45;111008;1258;21982;-69
2024/03/30 10:13:34;;;;;;;48.60;10.60;;;;;;;25.52;29.03;99234.98;110809;1258;22184;-68
2024/03/30 10:16:03;;;;;;;47.70;8.60;;;;;;;25.61;28.59;99236.29;110726;1258;22996;-67
2024/03/30 10:18:32;;;;;;;35.80;8.70;;;;;;;25.60;28.59;99237.27;110482;1258;21962;-70
2024/03/30 10:21:04;;;;;;;44.50;11.10;;;;;;;25.45;28.80;99235.70;111016;1258;21968;-68
2024/03/30 10:23:34;;;;;;;39.00;9.30;;;;;;;25.42;29.03;99233.00;110665;1259;21971;-69
2024/03/30 10:26:16;;;;;;;57.00;11.20;;;;;;;25.44;29.06;99231.85;110747;1258;21959;-70
2024/03/30 10:28:45;;;;;;;49.10;10.00;;;;;;;25.28;29.02;99232.64;111028;1258;22562;-69
2024/03/30 10:31:13;;;;;;;56.30;11.80;;;;;;;25.09;29.21;99224.75;110361;1258;21958;-71
2024/03/30 10:33:43;;;;;;;51.00;11.50;;;;;;;24.95;29.37;99225.96;110991;1258;23579;-69
2024/03/30 10:36:11;;;;;;;44.10;10.30;;;;;;;24.84;29.45;99229.17;110717;1258;21976;-69
2024/03/30 10:38:40;;;;;;;62.40;14.30;;;;;;;24.82;29.73;99218.39;110688;1258;21988;-70
2024/03/30 10:41:09;;;;;;;45.30;11.10;;;;;;;24.86;29.90;99220.05;110703;1258;21962;-69
2024/03/30 10:43:37;;;;;;;57.40;11.90;;;;;;;24.86;29.93;99217.84;110980;1258;23016;-69
2024/03/30 10:46:06;;;;;;;43.30;11.00;;;;;;;24.80;29.87;99223.27;110951;1255;21949;-69
2024/03/30 10:48:34;;;;;;;47.40;11.00;;;;;;;24.71;29.65;99225.73;110972;1258;21981;-69
2024/03/30 10:51:03;;;;;;;52.50;11.50;;;;;;;24.65;30.05;99218.34;110981;1258;21974;-70
2024/03/30 10:53:32;;;;;;;49.40;12.10;;;;;;;24.67;30.21;99210.36;110438;1258;21950;-69
2024/03/30 10:56:02;;;;;;;50.20;10.70;;;;;;;24.79;30.12;99204.64;111077;1258;22830;-71
2024/03/30 10:58:31;;;;;;;49.40;10.90;;;;;;;24.88;29.77;99203.58;110971;1245;22848;-71
2024/03/30 11:01:03;;;;;;;44.10;12.10;;;;;;;24.93;29.69;99200.48;110685;1258;21963;-70
2024/03/30 11:03:31;;;;;;;;;;;;;;;24.88;29.74;99191.77;110923;1258;21947;-70
2024/03/30 11:06:04;;;;;;;60.90;17.90;;;;;;;24.87;29.91;99192.70;110793;1258;21951;-70
2024/03/30 11:08:36;;;;;;;57.90;13.80;;;;;;;24.91;29.69;99193.40;110804;1258;23558;-71
2024/03/30 11:11:05;;;;;;;62.10;15.60;;;;;;;24.89;29.32;99197.29;111185;1258;21998;-71
2024/03/30 11:13:34;;;;;;;62.70;13.80;;;;;;;24.91;29.57;99194.23;111078;1258;22966;-70
2024/03/30 11:16:06;;;;;;;60.40;14.50;;;;;;;25.02;29.49;99198.93;110928;1258;23611;-71
2024/03/30 11:18:50;;;;;;;74.10;19.40;;;;;;;24.99;29.04;99197.13;110898;1258;24306;-70
2024/03/30 11:21:27;;;;;;;61.40;14.80;;;;;;;24.73;29.07;99203.55;110728;1258;22150;-69
2024/03/30 11:24:03;;;;;;;63.70;14.40;;;;;;;24.52;29.59;99202.02;110836;1258;22000;-69
2024/03/30 11:26:36;;;;;;;63.20;14.40;;;;;;;24.45;29.80;99205.82;111060;1258;23679;-70
2024/03/30 11:29:29;;;;;;;61.30;14.30;;;;;;;24.37;29.79;99201.07;110996;1258;22739;-69